Time;durP1;ratioP1;P1;durP2;ratioP2;P2;SDS_P1;SDS_P2;PMS_P1;PMS_P2;Temp;Humidity;BMP_temperature;BMP_pressure;BME280_temperature;BME280_humidity;BME280_pressure;Samples;Min_cycle;Max_cycle;Signal;HPM_P1;HPM_P2
2021/03/25 00:00:15;;;;;;;79.58;39.88;;;;;;;-1.82;67.73;99479.27;1773031;79;20930;-55
2021/03/25 00:02:43;;;;;;;76.25;36.80;;;;;;;-1.82;67.44;99476.20;1771864;79;21151;-55
2021/03/25 00:05:12;;;;;;;79.00;36.73;;;;;;;-1.82;67.32;99474.05;1771718;79;21800;-55
2021/03/25 00:07:40;;;;;;;78.97;39.13;;;;;;;-1.83;67.03;99471.93;1773701;79;21128;-55
2021/03/25 00:10:13;;;;;;;75.47;37.75;;;;;;;-1.81;66.87;99481.80;1769021;79;21013;-55
2021/03/25 00:12:40;;;;;;;92.50;42.50;;;;;;;-1.80;67.08;99473.05;1772475;79;21021;-54
2021/03/25 00:15:11;;;;;;;89.85;41.13;;;;;;;-1.81;67.21;99470.06;1773403;79;21098;-56
2021/03/25 00:17:38;;;;;;;71.67;34.98;;;;;;;-1.82;67.28;99465.77;1772477;79;21332;-55
2021/03/25 00:20:12;;;;;;;85.53;41.13;;;;;;;-1.82;67.30;99465.77;1776583;79;21108;-54
2021/03/25 00:22:40;;;;;;;93.30;45.55;;;;;;;-1.81;67.06;99464.84;1782426;79;21179;-58
2021/03/25 00:25:09;;;;;;;82.92;40.73;;;;;;;-1.80;67.15;99469.14;1802533;79;21086;-54
2021/03/25 00:27:36;;;;;;;90.10;44.18;;;;;;;-1.80;67.35;99470.45;1797761;79;21199;-54
2021/03/25 00:30:07;;;;;;;84.10;41.60;;;;;;;-1.77;67.31;99468.93;1784594;79;21193;-57
2021/03/25 00:32:35;;;;;;;90.20;42.27;;;;;;;-1.75;67.23;99467.09;1773524;79;21131;-54
2021/03/25 00:35:05;;;;;;;88.90;42.58;;;;;;;-1.73;67.09;99469.59;1788701;79;21108;-58
2021/03/25 00:37:33;;;;;;;90.22;41.98;;;;;;;-1.70;66.94;99466.80;1796110;79;21131;-55
2021/03/25 00:40:03;;;;;;;83.52;41.68;;;;;;;-1.68;66.77;99466.23;1774001;79;21037;-57
2021/03/25 00:42:31;;;;;;;87.20;40.33;;;;;;;-1.66;66.56;99469.12;1771833;79;21255;-55
2021/03/25 00:45:01;;;;;;;81.80;39.38;;;;;;;-1.64;66.34;99469.86;1771813;79;20930;-57
2021/03/25 00:47:28;;;;;;;82.47;40.03;;;;;;;-1.63;66.18;99471.55;1789250;79;21532;-55
2021/03/25 00:49:58;;;;;;;83.85;40.38;;;;;;;-1.61;66.06;99469.67;1779969;79;21021;-58
2021/03/25 00:52:25;;;;;;;76.80;38.75;;;;;;;-1.59;65.83;99472.20;1773017;79;21180;-55
2021/03/25 00:54:54;;;;;;;73.12;37.00;;;;;;;-1.59;65.56;99469.59;1775128;79;21425;-55
2021/03/25 00:57:21;;;;;;;71.53;34.27;;;;;;;-1.59;65.39;99474.32;1789923;79;20994;-55
2021/03/25 00:59:49;;;;;;;65.28;33.25;;;;;;;-1.61;65.11;99474.89;1790304;79;20997;-56
2021/03/25 01:02:17;;;;;;;60.05;32.63;;;;;;;-1.63;64.89;99470.23;1783344;79;21132;-55
2021/03/25 01:04:45;;;;;;;65.17;32.73;;;;;;;-1.66;64.92;99480.86;1771685;79;21120;-55
2021/03/25 01:08:27;;;;;;;66.05;32.08;;;;;;;-1.70;64.97;99476.77;1774623;79;21416;-56
2021/03/25 01:11:08;;;;;;;69.30;35.03;;;;;;;-1.73;64.90;99474.81;1790628;79;21002;-55
2021/03/25 01:13:49;;;;;;;63.20;31.42;;;;;;;-1.79;65.02;99477.32;1776318;79;21046;-56
2021/03/25 01:16:30;;;;;;;68.15;32.23;;;;;;;-1.83;64.95;99475.84;1761129;79;20978;-55
2021/03/25 01:19:00;;;;;;;65.03;32.05;;;;;;;-1.87;65.11;99478.25;1781716;79;21141;-55
2021/03/25 01:21:30;;;;;;;62.48;28.77;;;;;;;-1.92;65.43;99478.98;1771637;79;20994;-56
2021/03/25 01:23:58;;;;;;;61.55;31.45;;;;;;;-1.97;65.17;99478.43;1790979;79;21133;-55
2021/03/25 01:26:28;;;;;;;67.05;30.70;;;;;;;-2.03;65.20;99478.33;1771852;79;21587;-54
2021/03/25 01:29:00;;;;;;;59.63;29.77;;;;;;;-2.07;65.40;99478.16;1771554;79;21057;-55
2021/03/25 01:31:29;;;;;;;54.00;28.50;;;;;;;-2.10;65.46;99469.20;1775843;79;21152;-55
2021/03/25 01:34:00;;;;;;;63.55;32.93;;;;;;;-2.11;65.61;99471.42;1794905;79;21385;-55
2021/03/25 01:36:28;;;;;;;65.95;33.73;;;;;;;-2.16;66.30;99472.17;1794412;79;21162;-54
2021/03/25 01:38:59;;;;;;;74.30;35.83;;;;;;;-2.24;66.72;99474.87;1776412;79;20969;-55
2021/03/25 01:41:30;;;;;;;74.40;33.40;;;;;;;-2.28;66.37;99477.27;1771730;79;20985;-55
2021/03/25 01:44:00;;;;;;;68.75;33.65;;;;;;;-2.30;66.27;99483.89;1778025;79;21188;-55
2021/03/25 01:46:32;;;;;;;82.25;37.55;;;;;;;-2.32;66.20;99483.11;1793897;79;21198;-55
2021/03/25 01:49:11;;;;;;;86.10;42.53;;;;;;;-2.31;66.13;99482.66;1745162;80;21175;-55
2021/03/25 01:52:15;;;;;;;91.45;43.20;;;;;;;-2.31;65.85;99480.05;1757014;80;21045;-55
2021/03/25 01:55:12;;;;;;;97.70;45.75;;;;;;;-2.27;65.60;99484.17;1799223;79;21009;-55
2021/03/25 01:57:55;;;;;;;107.03;50.48;;;;;;;-2.25;65.41;99481.00;1776682;79;20985;-56
2021/03/25 02:01:00;;;;;;;111.97;52.93;;;;;;;-2.26;65.22;99481.92;1776563;79;21399;-55
2021/03/25 02:03:42;;;;;;;124.75;56.73;;;;;;;-2.32;65.16;99477.91;1776735;79;21001;-58
2021/03/25 02:06:46;;;;;;;131.80;60.50;;;;;;;-2.29;65.06;99486.00;1743783;81;21534;-55
2021/03/25 02:09:33;;;;;;;140.95;68.20;;;;;;;-2.24;64.94;99476.18;1709555;83;21223;-55
2021/03/25 02:12:34;;;;;;;168.25;79.27;;;;;;;-2.18;64.74;99486.22;1739095;82;21222;-57
2021/03/25 02:15:38;;;;;;;168.78;78.85;;;;;;;-2.09;64.25;99477.88;1730372;82;21072;-54
2021/03/25 02:18:18;;;;;;;154.65;72.53;;;;;;;-2.09;64.25;99477.88;1727424;82;21030;-58
2021/03/25 02:21:37;;;;;;;138.95;63.60;;;;;;;-2.05;63.87;99478.89;1728499;82;21085;-56
2021/03/25 02:24:30;;;;;;;114.92;50.67;;;;;;;-2.01;63.57;99478.25;1695417;82;21041;-55
2021/03/25 02:27:33;;;;;;;91.05;41.30;;;;;;;-1.96;63.38;99480.97;1722388;82;21092;-56
2021/03/25 02:30:11;;;;;;;95.00;43.40;;;;;;;-1.98;64.07;99481.50;1722481;82;21206;-56
2021/03/25 02:32:54;;;;;;;89.65;41.35;;;;;;;-2.13;64.84;99482.41;1708555;82;21175;-56
2021/03/25 02:35:40;;;;;;;98.10;44.10;;;;;;;-2.30;65.93;99477.38;1730769;82;21633;-58
2021/03/25 02:38:19;;;;;;;87.67;42.08;;;;;;;-2.44;66.46;99485.60;1699264;82;21156;-55
2021/03/25 02:40:53;;;;;;;95.15;44.90;;;;;;;-2.56;66.88;99481.50;1724040;82;21140;-58
2021/03/25 02:43:27;;;;;;;87.50;40.75;;;;;;;-2.59;67.09;99478.22;1722794;82;21441;-55
2021/03/25 02:46:02;;;;;;;89.50;39.33;;;;;;;-2.59;66.14;99475.16;1732064;80;20997;-55
2021/03/25 02:48:32;;;;;;;80.83;37.93;;;;;;;-2.52;66.49;99480.84;1711922;82;21157;-60
2021/03/25 02:51:05;;;;;;;75.08;38.53;;;;;;;-2.52;66.49;99480.84;1642578;83;21509;-55
2021/03/25 02:53:41;;;;;;;93.25;41.95;;;;;;;-2.51;65.92;99482.07;1734782;82;21142;-59
2021/03/25 02:56:35;;;;;;;79.05;38.00;;;;;;;-2.53;66.25;99477.88;1691502;82;21368;-57
2021/03/25 02:59:26;;;;;;;74.07;33.98;;;;;;;-2.53;66.25;99492.20;1713824;82;21112;-56
2021/03/25 03:02:24;;;;;;;89.35;40.98;;;;;;;-2.60;66.33;99487.80;1731190;82;21203;-54
2021/03/25 03:04:58;;;;;;;86.25;40.67;;;;;;;-2.66;67.08;99476.91;1734655;82;21167;-58
2021/03/25 03:07:44;;;;;;;77.95;35.13;;;;;;;-2.73;67.00;99479.00;1689280;85;21239;-56
2021/03/25 03:10:25;;;;;;;77.37;35.57;;;;;;;-2.69;66.63;99474.02;1827215;76;22764;-58
2021/03/25 03:12:55;;;;;;;73.33;34.50;;;;;;;-2.70;66.28;99469.72;1758075;79;21028;-57
2021/03/25 03:15:38;;;;;;;74.65;35.48;;;;;;;-2.65;66.09;99461.17;1748275;79;21208;-55
2021/03/25 03:18:20;;;;;;;77.70;36.77;;;;;;;-2.61;65.89;99467.06;1791458;79;20961;-57
2021/03/25 03:20:59;;;;;;;85.22;39.90;;;;;;;-2.58;66.00;99465.58;1785661;78;20914;-57
2021/03/25 03:23:30;;;;;;;85.60;40.95;;;;;;;-2.63;66.83;99471.03;1758850;79;20989;-59
2021/03/25 03:26:02;;;;;;;92.33;43.28;;;;;;;-2.75;67.30;99473.05;1746604;80;21001;-57
2021/03/25 03:31:29;;;;;;;75.83;38.98;;;;;;;-2.94;68.12;99474.16;1712358;83;21015;-55
2021/03/25 03:34:06;;;;;;;81.57;40.40;;;;;;;-3.06;68.34;99469.66;1725576;83;20996;-55
2021/03/25 03:36:34;;;;;;;80.53;38.50;;;;;;;-3.15;68.91;99469.69;1682977;84;28303;-56
2021/03/25 03:39:10;;;;;;;90.70;40.35;;;;;;;-3.18;69.36;99467.28;1708933;83;20922;-54
2021/03/25 03:41:52;;;;;;;86.22;40.40;;;;;;;-3.21;69.69;99472.66;1642078;84;21970;-55
2021/03/25 03:44:30;;;;;;;81.82;39.38;;;;;;;-3.24;69.94;99470.22;1708464;83;21140;-56
2021/03/25 03:46:59;;;;;;;92.30;40.78;;;;;;;-3.27;70.18;99471.22;1719850;83;21046;-55
2021/03/25 03:49:45;;;;;;;83.67;40.00;;;;;;;-3.27;70.46;99469.08;1678516;83;21207;-55
2021/03/25 03:52:30;;;;;;;92.95;41.35;;;;;;;-3.26;70.63;99472.88;1710577;83;20946;-55
2021/03/25 03:55:00;;;;;;;86.32;40.28;;;;;;;-3.25;70.72;99473.27;1722384;83;21381;-56
2021/03/25 03:58:11;;;;;;;84.95;40.45;;;;;;;-3.24;70.71;99474.97;1694997;83;21230;-58
2021/03/25 04:00:47;;;;;;;96.90;42.93;;;;;;;-3.23;70.58;99471.42;1727051;83;21021;-54
2021/03/25 04:03:39;;;;;;;97.08;46.73;;;;;;;-3.22;70.44;99472.27;1727615;83;21024;-55
2021/03/25 04:06:50;;;;;;;103.65;47.08;;;;;;;-3.25;70.40;99471.97;1727591;83;21131;-56
2021/03/25 04:09:45;;;;;;;97.78;43.25;;;;;;;-3.33;70.49;99478.51;1705332;83;20997;-58
2021/03/25 04:12:24;;;;;;;93.52;43.85;;;;;;;-3.46;70.71;99469.23;1725331;83;21258;-56
2021/03/25 04:15:15;;;;;;;93.15;43.83;;;;;;;-3.56;71.14;99470.66;1729411;81;21164;-58
2021/03/25 04:17:52;;;;;;;87.72;40.88;;;;;;;-3.58;71.35;99470.37;1725261;83;21126;-58
2021/03/25 04:20:35;;;;;;;92.75;42.88;;;;;;;-3.55;71.61;99468.91;1714203;83;21142;-55
2021/03/25 04:23:18;;;;;;;96.82;44.55;;;;;;;-3.44;71.84;99473.08;1694753;83;21213;-55
2021/03/25 04:25:52;;;;;;;101.85;43.68;;;;;;;-3.25;71.69;99468.53;1723182;83;21127;-56
2021/03/25 04:28:40;;;;;;;89.47;41.80;;;;;;;-2.72;71.16;99468.13;1708222;83;20963;-55
2021/03/25 04:31:08;;;;;;;87.62;40.98;;;;;;;-2.38;70.31;99457.89;1682538;83;21614;-60
2021/03/25 04:33:39;;;;;;;84.17;39.35;;;;;;;-2.38;70.31;99457.89;1704986;83;21386;-55
2021/03/25 04:36:17;;;;;;;86.05;40.60;;;;;;;-2.03;69.99;99455.33;1696837;83;21407;-55
2021/03/25 04:38:45;;;;;;;87.75;42.55;;;;;;;-1.72;68.98;99459.05;1686417;83;21027;-57
2021/03/25 04:41:15;;;;;;;92.92;44.63;;;;;;;-1.57;68.52;99455.98;1700376;83;21000;-56
2021/03/25 04:43:47;;;;;;;79.60;40.67;;;;;;;-1.50;67.93;99455.50;1686922;83;21581;-55
2021/03/25 04:46:32;;;;;;;81.95;40.63;;;;;;;-1.35;67.45;99450.63;1684775;83;21182;-54
2021/03/25 04:49:04;;;;;;;87.45;41.48;;;;;;;-1.17;66.83;99449.11;1706660;83;21373;-56
2021/03/25 04:51:31;;;;;;;92.22;45.48;;;;;;;-1.04;66.08;99448.20;1703867;83;21020;-55
2021/03/25 04:54:26;;;;;;;84.75;42.05;;;;;;;-0.93;65.36;99443.13;1695523;83;21033;-57
2021/03/25 04:56:56;;;;;;;78.37;40.63;;;;;;;-0.81;65.62;99449.35;1720983;81;21235;-55
2021/03/25 04:59:24;;;;;;;83.47;41.98;;;;;;;-0.72;65.35;99450.88;1712549;83;21095;-55
2021/03/25 05:01:51;;;;;;;73.50;37.80;;;;;;;-0.61;65.13;99450.19;1701410;83;21356;-56
2021/03/25 05:04:19;;;;;;;75.22;38.60;;;;;;;-0.42;65.16;99445.42;1694684;83;21040;-57
2021/03/25 05:06:54;;;;;;;73.10;39.48;;;;;;;-0.18;64.97;99454.21;1704906;83;21094;-56
2021/03/25 05:09:22;;;;;;;75.62;40.15;;;;;;;0.11;64.55;99451.38;1712451;83;21032;-56
2021/03/25 05:11:49;;;;;;;72.08;39.18;;;;;;;0.46;63.99;99448.48;1703498;83;21122;-58
2021/03/25 05:14:23;;;;;;;79.17;41.83;;;;;;;0.92;63.55;99448.66;1696797;83;21211;-56
2021/03/25 05:17:18;;;;;;;76.02;40.85;;;;;;;1.38;62.86;99451.39;1699022;83;21158;-53
2021/03/25 05:20:02;;;;;;;87.88;45.85;;;;;;;1.93;61.94;99452.84;1703900;83;21215;-55
2021/03/25 05:22:51;;;;;;;81.65;45.20;;;;;;;2.45;60.13;99451.81;1705203;83;20989;-55
2021/03/25 05:25:45;;;;;;;78.87;43.73;;;;;;;2.92;59.05;99447.24;1706457;83;21133;-58
2021/03/25 05:28:43;;;;;;;83.47;45.20;;;;;;;3.51;58.27;99444.53;1706083;82;21442;-56
2021/03/25 05:31:12;;;;;;;79.67;46.40;;;;;;;4.20;57.17;99442.17;1716195;83;21093;-56
2021/03/25 05:33:40;;;;;;;86.70;47.30;;;;;;;4.81;55.96;99438.55;1697518;83;21128;-58
2021/03/25 05:36:11;;;;;;;92.20;50.65;;;;;;;5.26;54.90;99444.67;1695568;83;21151;-58
2021/03/25 05:38:39;;;;;;;87.75;52.25;;;;;;;5.67;53.72;99444.87;1700546;83;21128;-56
2021/03/25 05:41:40;;;;;;;87.42;52.95;;;;;;;5.94;52.42;99451.14;1709769;83;21204;-56
2021/03/25 05:45:00;;;;;;;88.58;53.70;;;;;;;6.27;52.04;99459.53;1710550;83;21162;-54
2021/03/25 05:48:00;;;;;;;82.00;48.25;;;;;;;6.64;50.71;99449.80;1717158;83;21172;-55
2021/03/25 05:50:42;;;;;;;81.63;49.40;;;;;;;6.94;49.95;99457.43;1690265;83;21231;-55
2021/03/25 05:53:39;;;;;;;77.80;47.53;;;;;;;7.18;48.46;99451.58;1711649;83;21124;-56
2021/03/25 05:56:46;;;;;;;82.10;48.02;;;;;;;7.45;48.52;99452.37;1717112;83;21370;-56
2021/03/25 05:59:19;;;;;;;77.35;45.48;;;;;;;7.89;47.64;99448.44;1703739;83;21205;-56
2021/03/25 06:02:15;;;;;;;71.20;44.35;;;;;;;8.36;47.37;99441.84;1697073;83;21623;-55
2021/03/25 06:04:43;;;;;;;73.22;41.95;;;;;;;8.83;46.67;99442.23;1714645;83;20954;-55
2021/03/25 06:07:19;;;;;;;64.75;37.38;;;;;;;9.26;45.17;99448.66;1715333;83;21140;-56
2021/03/25 06:10:29;;;;;;;63.87;37.67;;;;;;;9.55;43.87;99451.36;1717227;83;21379;-55
2021/03/25 06:13:46;;;;;;;57.25;35.98;;;;;;;9.80;42.69;99444.56;1711707;83;21101;-57
2021/03/25 06:16:37;;;;;;;63.40;34.03;;;;;;;9.93;41.91;99447.55;1660595;84;21119;-56
2021/03/25 06:19:46;;;;;;;54.33;35.30;;;;;;;10.36;41.55;99445.54;1866601;74;27742;-60
2021/03/25 06:22:28;;;;;;;40.30;26.60;;;;;;;10.62;39.83;99448.80;1849329;77;20941;-55
2021/03/25 06:25:33;;;;;;;33.02;20.72;;;;;;;10.81;38.17;99451.56;1847707;77;21216;-58
2021/03/25 06:28:21;;;;;;;28.95;18.70;;;;;;;10.95;35.91;99451.65;1809320;79;21172;-55
2021/03/25 06:31:21;;;;;;;23.35;17.07;;;;;;;10.91;31.86;99446.86;1756266;80;21080;-59
2021/03/25 06:34:07;;;;;;;26.60;17.12;;;;;;;10.74;32.60;99455.92;1757491;80;21246;-56
2021/03/25 06:36:53;;;;;;;25.52;16.90;;;;;;;10.80;33.06;99456.05;1769819;79;21094;-56
2021/03/25 06:39:41;;;;;;;28.17;18.40;;;;;;;10.96;32.29;99459.98;1752846;80;21386;-59
2021/03/25 06:42:30;;;;;;;20.65;15.23;;;;;;;11.12;31.87;99453.25;1727060;80;20929;-56
2021/03/25 06:45:23;;;;;;;22.65;13.53;;;;;;;11.11;30.38;99462.73;1743069;80;21024;-56
2021/03/25 06:48:08;;;;;;;24.23;12.30;;;;;;;10.92;30.26;99467.16;1790817;79;21225;-57
2021/03/25 06:50:50;;;;;;;25.43;12.47;;;;;;;10.80;30.29;99463.19;1771717;80;21131;-59
2021/03/25 06:53:27;;;;;;;18.10;13.38;;;;;;;10.96;29.98;99466.63;1784740;79;21461;-57
2021/03/25 06:56:08;;;;;;;20.62;12.45;;;;;;;11.18;29.55;99460.22;1761745;80;21000;-57
2021/03/25 06:58:54;;;;;;;17.67;12.53;;;;;;;11.23;29.45;99461.84;1769199;79;20993;-54
2021/03/25 07:01:41;;;;;;;17.60;11.35;;;;;;;11.25;29.53;99469.98;1763105;80;21580;-57
2021/03/25 07:04:26;;;;;;;15.78;11.00;;;;;;;11.40;29.25;99464.73;1779898;77;20929;-59
2021/03/25 07:06:57;;;;;;;17.35;12.60;;;;;;;11.65;29.13;99464.92;1795071;79;21196;-58
2021/03/25 07:09:31;;;;;;;18.32;13.55;;;;;;;11.81;28.80;99466.14;1788899;77;21035;-59
2021/03/25 07:12:02;;;;;;;17.52;14.40;;;;;;;11.96;28.86;99468.88;1735042;80;20985;-57
2021/03/25 07:14:43;;;;;;;22.32;15.38;;;;;;;12.13;29.07;99475.22;1770696;79;21563;-60
2021/03/25 07:17:14;;;;;;;21.40;14.68;;;;;;;12.14;29.15;99474.22;1779926;79;21178;-59
2021/03/25 07:19:46;;;;;;;15.25;12.78;;;;;;;12.35;29.29;99473.03;1765889;80;23090;-58
2021/03/25 07:22:31;;;;;;;20.55;13.28;;;;;;;12.63;28.39;99471.89;1774673;80;21758;-61
2021/03/25 07:25:18;;;;;;;16.62;11.90;;;;;;;12.58;28.04;99476.12;1775630;80;21178;-59
2021/03/25 07:27:46;;;;;;;22.05;12.23;;;;;;;12.46;28.75;99476.25;1769318;80;21648;-57
2021/03/25 07:30:20;;;;;;;20.17;11.83;;;;;;;12.57;29.24;99475.28;1756843;79;21139;-57
2021/03/25 07:32:55;;;;;;;12.65;10.28;;;;;;;12.79;28.68;99470.38;1752941;79;21942;-57
2021/03/25 07:35:39;;;;;;;12.30;10.30;;;;;;;12.80;28.09;99478.69;1761488;80;20945;-57
2021/03/25 07:38:30;;;;;;;14.90;9.18;;;;;;;12.79;28.18;99482.39;1778232;80;21048;-57
2021/03/25 07:41:24;;;;;;;10.58;7.58;;;;;;;12.68;28.19;99472.67;1753926;80;21211;-58
2021/03/25 07:44:03;;;;;;;12.70;7.80;;;;;;;12.69;27.25;99477.00;1762778;80;21139;-57
2021/03/25 07:46:46;;;;;;;10.18;7.55;;;;;;;12.90;27.92;99471.76;1754102;80;22398;-56
2021/03/25 07:49:17;;;;;;;8.05;7.10;;;;;;;13.42;27.92;99473.78;1760455;79;20999;-57
2021/03/25 07:52:06;;;;;;;7.90;7.00;;;;;;;13.81;26.99;99476.04;1755901;80;21150;-58
2021/03/25 07:54:40;;;;;;;11.25;7.37;;;;;;;13.94;26.53;99468.14;1755902;80;21064;-58
2021/03/25 07:57:19;;;;;;;11.68;7.12;;;;;;;14.10;26.96;99465.70;1770464;79;21124;-57
2021/03/25 07:59:54;;;;;;;11.08;6.50;;;;;;;14.49;26.44;99470.06;1758666;80;21541;-56
2021/03/25 08:02:35;;;;;;;8.40;7.08;;;;;;;14.94;25.50;99462.50;1759087;79;20946;-56
2021/03/25 08:05:28;;;;;;;7.97;6.50;;;;;;;14.84;24.60;99463.67;1758374;80;21021;-59
2021/03/25 08:08:20;;;;;;;9.43;6.37;;;;;;;14.48;25.59;99467.56;1753656;80;21028;-59
2021/03/25 08:10:52;;;;;;;8.55;5.67;;;;;;;14.40;25.24;99465.86;1769793;80;21038;-57
2021/03/25 08:13:27;;;;;;;7.47;5.97;;;;;;;14.60;25.01;99467.36;1776750;80;21356;-58
2021/03/25 08:16:08;;;;;;;6.97;5.62;;;;;;;14.54;25.14;99465.45;1766922;80;21127;-64
2021/03/25 08:19:03;;;;;;;10.13;5.65;;;;;;;14.53;25.08;99468.63;1763358;80;20994;-56
2021/03/25 08:22:10;;;;;;;5.35;4.62;;;;;;;14.32;24.29;99467.84;1747609;79;21014;-58
2021/03/25 08:24:59;;;;;;;;;;;;;;;13.94;24.48;99468.14;1821587;76;21175;-56
2021/03/25 08:27:37;;;;;;;5.78;3.60;;;;;;;14.00;23.58;99468.69;1821817;78;21372;-57
2021/03/25 08:30:41;;;;;;;7.17;3.40;;;;;;;14.28;23.96;99467.40;1816727;78;21009;-57
2021/03/25 08:33:17;;;;;;;9.48;3.62;;;;;;;14.63;23.80;99469.11;1827061;78;21115;-61
2021/03/25 08:36:04;;;;;;;4.47;2.87;;;;;;;14.91;23.64;99460.22;1811306;78;21392;-58
2021/03/25 08:38:44;;;;;;;3.52;2.95;;;;;;;15.16;23.50;99459.51;1799585;76;20941;-59
2021/03/25 08:41:33;;;;;;;5.45;3.27;;;;;;;15.42;23.44;99460.94;1814755;78;21375;-58
2021/03/25 08:44:23;;;;;;;4.83;3.20;;;;;;;15.64;22.47;99458.15;1817860;78;21104;-59
2021/03/25 08:46:55;;;;;;;7.05;3.75;;;;;;;15.84;22.50;99459.83;1811246;78;20870;-57
2021/03/25 08:49:38;;;;;;;10.98;2.62;;;;;;;15.96;22.37;99454.16;1831159;78;21091;-60
2021/03/25 08:52:09;;;;;;;6.50;3.00;;;;;;;15.89;22.53;99447.97;1815819;78;21048;-58
2021/03/25 08:54:47;;;;;;;5.10;2.60;;;;;;;15.92;21.65;99451.59;1813875;78;22245;-58
2021/03/25 08:57:24;;;;;;;8.35;3.37;;;;;;;15.68;21.13;99452.17;1807646;78;21183;-58
2021/03/25 09:00:03;;;;;;;7.72;2.50;;;;;;;15.46;22.34;99450.66;1807908;78;21530;-59
2021/03/25 09:02:40;;;;;;;9.85;3.02;;;;;;;15.77;21.87;99451.47;1807052;78;21163;-57
2021/03/25 09:05:36;;;;;;;5.70;3.00;;;;;;;16.12;21.48;99450.75;1815115;78;21530;-58
2021/03/25 09:08:08;;;;;;;4.45;3.05;;;;;;;16.00;21.10;99451.91;1810327;78;21363;-60
2021/03/25 09:10:46;;;;;;;10.08;2.75;;;;;;;15.85;21.34;99445.91;1792034;76;20981;-59
2021/03/25 09:13:18;;;;;;;10.28;3.30;;;;;;;15.67;21.63;99450.50;1825524;78;21130;-59
2021/03/25 09:15:46;;;;;;;4.08;2.58;;;;;;;15.77;22.80;99444.77;1816716;78;21092;-56
2021/03/25 09:18:17;;;;;;;18.67;3.60;;;;;;;15.99;21.25;99444.87;1819527;76;21233;-60
2021/03/25 09:20:49;;;;;;;3.47;2.60;;;;;;;15.71;22.16;99449.08;1823453;78;21191;-58
2021/03/25 09:23:36;;;;;;;3.58;2.65;;;;;;;15.51;21.35;99452.24;1816333;78;21546;-60
2021/03/25 09:26:15;;;;;;;6.22;3.05;;;;;;;15.30;20.79;99447.80;1822366;78;21131;-62
2021/03/25 09:28:59;;;;;;;4.03;2.40;;;;;;;15.55;20.95;99441.92;1808237;76;21522;-61
2021/03/25 09:31:41;;;;;;;4.25;2.67;;;;;;;16.01;20.77;99435.59;1816762;78;21108;-61
2021/03/25 09:34:16;;;;;;;4.85;2.72;;;;;;;16.44;20.18;99434.64;1826170;78;20981;-59
2021/03/25 09:36:46;;;;;;;4.25;3.02;;;;;;;16.73;20.03;99428.00;1815289;78;20995;-57
2021/03/25 09:39:33;;;;;;;7.08;2.72;;;;;;;16.78;19.40;99428.71;1813960;78;21160;-58
2021/03/25 09:42:19;;;;;;;3.95;2.70;;;;;;;16.56;19.70;99415.53;1818021;78;20970;-63
2021/03/25 09:44:48;;;;;;;3.17;2.58;;;;;;;16.46;19.42;99419.66;1804195;78;21157;-63
2021/03/25 09:47:34;;;;;;;4.30;2.95;;;;;;;16.69;19.54;99417.36;1815185;78;21266;-60
2021/03/25 09:50:16;;;;;;;3.55;3.10;;;;;;;16.73;19.12;99416.43;1808997;78;20989;-61
2021/03/25 09:53:11;;;;;;;3.30;3.00;;;;;;;16.64;18.88;99412.63;1808297;78;21064;-62
2021/03/25 09:55:42;;;;;;;4.40;3.45;;;;;;;16.42;19.21;99417.09;1819647;78;20981;-57
2021/03/25 09:58:35;;;;;;;7.20;3.10;;;;;;;16.39;19.53;99421.53;1780194;79;21225;-61
2021/03/25 10:01:02;;;;;;;4.75;2.77;;;;;;;16.49;19.33;99415.22;1792387;78;21355;-58
2021/03/25 10:04:05;;;;;;;4.85;2.92;;;;;;;16.35;19.00;99414.41;1826639;76;21132;-62
2021/03/25 10:06:56;;;;;;;8.30;3.20;;;;;;;16.21;20.24;99409.27;1811030;76;20922;-56
2021/03/25 10:09:52;;;;;;;5.40;3.05;;;;;;;16.08;19.01;99404.20;1799682;77;20902;-56
2021/03/25 10:13:06;;;;;;;5.08;3.45;;;;;;;15.81;19.47;99407.10;1810286;76;21515;-58
2021/03/25 10:15:52;;;;;;;8.83;3.40;;;;;;;15.93;20.07;99403.59;1814392;76;21001;-59
2021/03/25 10:18:33;;;;;;;5.30;3.27;;;;;;;16.03;19.36;99399.97;1810598;78;21005;-56
2021/03/25 10:21:12;;;;;;;7.40;3.60;;;;;;;16.15;19.04;99400.19;1834519;78;20954;-58
2021/03/25 10:23:57;;;;;;;5.87;4.15;;;;;;;16.23;19.26;99403.17;1815343;76;21048;-57
2021/03/25 10:26:36;;;;;;;4.22;3.67;;;;;;;16.22;19.39;99405.53;1798990;78;21124;-57
2021/03/25 10:29:18;;;;;;;10.85;4.75;;;;;;;16.25;19.37;99398.41;1820471;78;22256;-57
2021/03/25 10:31:55;;;;;;;11.48;4.40;;;;;;;16.39;19.18;99394.69;1806801;78;21999;-57
2021/03/25 10:34:31;;;;;;;7.65;3.25;;;;;;;16.45;19.08;99396.55;1809987;78;20966;-57
2021/03/25 10:37:29;;;;;;;7.97;3.67;;;;;;;16.41;18.87;99385.90;1809075;78;21052;-57
2021/03/25 10:40:09;;;;;;;6.10;3.98;;;;;;;16.42;19.14;99387.56;1811392;78;21107;-61
2021/03/25 10:42:39;;;;;;;5.40;3.70;;;;;;;16.42;18.90;99387.05;1801846;78;21134;-57
2021/03/25 10:45:24;;;;;;;4.25;3.40;;;;;;;16.20;18.59;99385.63;1819246;78;21190;-57
2021/03/25 10:48:02;;;;;;;4.15;3.25;;;;;;;15.89;18.77;99383.59;1814571;76;21008;-59
2021/03/25 10:50:42;;;;;;;7.33;3.33;;;;;;;15.80;19.26;99381.33;1812094;78;20946;-57
2021/03/25 10:53:14;;;;;;;3.35;2.90;;;;;;;15.90;18.77;99378.52;1813676;78;21130;-56
2021/03/25 10:55:46;;;;;;;5.15;3.12;;;;;;;15.78;18.53;99375.32;1835435;76;22244;-57
2021/03/25 10:58:22;;;;;;;5.42;3.35;;;;;;;15.68;18.87;99377.08;1834294;76;21130;-59
2021/03/25 11:00:49;;;;;;;4.00;2.95;;;;;;;15.62;19.13;99369.84;1818639;76;21131;-55
2021/03/25 11:03:31;;;;;;;4.92;3.22;;;;;;;15.61;19.02;99366.88;1787712;78;21578;-57
2021/03/25 11:06:01;;;;;;;3.70;2.55;;;;;;;15.64;18.90;99366.98;1806501;78;21101;-56
2021/03/25 11:08:36;;;;;;;5.65;3.55;;;;;;;15.61;19.11;99363.36;1814091;78;21364;-57
2021/03/25 11:11:18;;;;;;;4.85;3.50;;;;;;;15.47;18.83;99359.00;1809885;78;21584;-57
2021/03/25 11:13:58;;;;;;;4.55;2.75;;;;;;;15.27;18.81;99361.13;1763793;81;21151;-57
2021/03/25 11:16:27;;;;;;;8.50;3.00;;;;;;;15.09;18.78;99363.55;1730379;81;21155;-56
2021/03/25 11:19:08;;;;;;;3.20;2.60;;;;;;;14.91;19.01;99362.45;1806637;78;21093;-57
2021/03/25 11:21:40;;;;;;;3.98;2.72;;;;;;;14.75;19.01;99348.39;1806594;78;21625;-56
2021/03/25 11:24:29;;;;;;;3.22;2.65;;;;;;;14.62;19.61;99356.37;1819788;76;21606;-56
2021/03/25 11:27:04;;;;;;;4.20;2.62;;;;;;;14.62;19.84;99352.86;1820705;78;21139;-56
2021/03/25 11:29:35;;;;;;;4.80;2.75;;;;;;;14.67;19.68;99339.70;1826179;78;21606;-56
2021/03/25 11:32:36;;;;;;;6.95;2.98;;;;;;;14.64;19.78;99341.43;1813422;78;21182;-54
2021/03/25 11:35:39;;;;;;;5.03;2.08;;;;;;;14.61;20.01;99348.02;1818901;78;21420;-55
2021/03/25 11:41:11;;;;;;;5.97;2.87;;;;;;;14.67;19.21;99339.20;1806452;78;22790;-56
2021/03/25 11:43:54;;;;;;;3.95;2.90;;;;;;;14.59;19.29;99338.02;1793218;79;20977;-56
2021/03/25 11:46:46;;;;;;;4.95;2.80;;;;;;;14.56;19.55;99333.57;1777022;79;21193;-57
2021/03/25 11:49:20;;;;;;;5.60;2.85;;;;;;;14.40;19.56;99338.74;1789549;79;21574;-57
2021/03/25 11:51:57;;;;;;;5.15;2.25;;;;;;;14.19;19.57;99340.13;1784549;79;20990;-56
2021/03/25 11:54:35;;;;;;;3.85;3.00;;;;;;;14.15;19.91;99330.86;1780594;79;21155;-55
2021/03/25 11:57:32;;;;;;;4.35;2.98;;;;;;;14.16;19.87;99325.30;1776725;79;21068;-60
2021/03/25 12:00:10;;;;;;;3.75;2.55;;;;;;;14.19;20.19;99330.26;1784556;79;21181;-56
2021/03/25 12:02:42;;;;;;;3.60;2.47;;;;;;;14.10;20.21;99314.03;1775334;79;21645;-55
2021/03/25 12:05:24;;;;;;;3.95;2.62;;;;;;;13.94;20.40;99319.72;1777296;79;20977;-55
2021/03/25 12:08:16;;;;;;;6.53;2.90;;;;;;;13.81;20.41;99319.62;1766031;79;21052;-57
2021/03/25 12:10:47;;;;;;;6.40;2.55;;;;;;;13.69;20.36;99323.03;1795329;79;21096;-55
2021/03/25 12:13:14;;;;;;;4.30;2.60;;;;;;;13.53;20.30;99316.92;1726910;79;21630;-56
2021/03/25 12:15:44;;;;;;;4.33;3.05;;;;;;;13.41;20.37;99313.13;1782593;79;21171;-58
2021/03/25 12:18:23;;;;;;;7.55;2.70;;;;;;;13.32;20.44;99309.45;1793324;78;20985;-56
2021/03/25 12:20:56;;;;;;;4.85;2.80;;;;;;;13.27;20.47;99311.88;1781545;79;20954;-56
2021/03/25 12:23:27;;;;;;;6.58;2.55;;;;;;;13.22;21.41;99312.42;1795320;79;21060;-56
2021/03/25 12:25:59;;;;;;;4.08;2.60;;;;;;;13.13;20.99;99306.91;1785893;77;21370;-55
2021/03/25 12:28:27;;;;;;;4.90;3.15;;;;;;;13.04;21.04;99302.66;1782352;79;21645;-56
2021/03/25 12:30:58;;;;;;;6.12;2.70;;;;;;;13.00;21.06;99306.23;1780638;79;20997;-57